CheckWX is a tool to help pilots better visualize weather data.  It is not intended as a substitute for an official pre-flight weather briefing.

13:00:28 UTC

KLBT TAF
Lumberton Regional Airport
Lumberton, North Carolina, USA
KLBT 201120Z 2012/2112 23005KT P6SM SCT250 FM201700 23007KT P6SM SCT050 SCT250 FM202000 23007KT P6SM VCTS SCT050CB SCT250 FM210000 21004KT P6SM SCT250 FM210600 21004KT P6SM SCT050 BKN200 AMD NOT SKED

Aug-20@
12:00 UTC

Aug-20 @ 12:00 UTC

Aug-20@
17:00 UTC

Aug-20 @ 17:00 UTC

KLBT 201120Z 2012/2112 23005KT P6SM SCT250
Wind
  • 230° at 5 KTS
Cloud Levels
  • Scattered at 25,000' AGL

Aug-20@
17:00 UTC

Aug-20 @ 17:00 UTC

Aug-20@
20:00 UTC

Aug-20 @ 20:00 UTC

FM201700 23007KT P6SM SCT050 SCT250

From

From Standard forecast or significant change

Wind
  • 230° at 7 KTS
Cloud Levels
  • Scattered at 5,000' AGL
  • Scattered at 25,000' AGL

Aug-20@
20:00 UTC

Aug-20 @ 20:00 UTC

Aug-21@
00:00 UTC

Aug-21 @ 00:00 UTC

FM202000 23007KT P6SM VCTS SCT050CB SCT250

From

From Standard forecast or significant change

Wind
  • 230° at 7 KTS
Conditions
Area Thunderstorm
Cloud Levels
  • Scattered at 5,000' AGL
  • Scattered at 25,000' AGL

Aug-21@
00:00 UTC

Aug-21 @ 00:00 UTC

Aug-21@
06:00 UTC

Aug-21 @ 06:00 UTC

FM210000 21004KT P6SM SCT250

From

From Standard forecast or significant change

Wind
  • 210° at 4 KTS
Cloud Levels
  • Scattered at 25,000' AGL

Aug-21@
06:00 UTC

Aug-21 @ 06:00 UTC

Aug-21@
12:00 UTC

Aug-21 @ 12:00 UTC

FM210600 21004KT P6SM SCT050 BKN200 AMD NOT SKED

From

From Standard forecast or significant change

Wind
  • 210° at 4 KTS
Cloud Levels
  • Scattered at 5,000' AGL
  • Broken at 20,000' AGL